Time;durP1;ratioP1;P1;durP2;ratioP2;P2;SDS_P1;SDS_P2;PMS_P1;PMS_P2;Temp;Humidity;BMP_temperature;BMP_pressure;BME280_temperature;BME280_humidity;BME280_pressure;Samples;Min_cycle;Max_cycle;Signal;HPM_P1;HPM_P2
2022/10/27 00:01:17;;;;;;;8.30;5.87;;;;;;;;;;5052155;28;20188;-45
2022/10/27 00:03:44;;;;;;;11.10;6.47;;;;;;;;;;5052662;28;20231;-45
2022/10/27 00:06:10;;;;;;;6.17;5.40;;;;;;;;;;5051574;28;20227;-45
2022/10/27 00:08:36;;;;;;;9.23;6.33;;;;;;;;;;5052347;28;20216;-45
2022/10/27 00:11:03;;;;;;;6.90;6.20;;;;;;;;;;5052441;28;20283;-46
2022/10/27 00:13:29;;;;;;;8.30;5.80;;;;;;;;;;5052170;28;20323;-45
2022/10/27 00:15:56;;;;;;;10.10;5.27;;;;;;;;;;5052402;28;20463;-45
2022/10/27 00:18:22;;;;;;;8.67;5.90;;;;;;;;;;5051977;28;20730;-45
2022/10/27 00:20:57;;;;;;;11.77;7.57;;;;;;;;;;5052140;28;20295;-45
2022/10/27 00:23:23;;;;;;;8.30;7.33;;;;;;;;;;5050854;28;20204;-45
2022/10/27 00:25:51;;;;;;;10.60;7.53;;;;;;;;;;5051567;28;20658;-45
2022/10/27 00:28:17;;;;;;;9.27;7.87;;;;;;;;;;5051938;28;20200;-44
2022/10/27 00:30:43;;;;;;;9.80;7.37;;;;;;;;;;5052330;28;20271;-45
2022/10/27 00:33:09;;;;;;;12.53;7.17;;;;;;;;;;5051637;28;20282;-45
2022/10/27 00:35:35;;;;;;;10.53;7.30;;;;;;;;;;5052141;28;20235;-45
2022/10/27 00:38:03;;;;;;;12.27;7.83;;;;;;;;;;5051601;28;20204;-45
2022/10/27 00:40:29;;;;;;;12.60;7.80;;;;;;;;;;5052001;28;20212;-45
2022/10/27 00:42:55;;;;;;;10.80;8.00;;;;;;;;;;5051205;28;20279;-45
2022/10/27 00:45:21;;;;;;;10.33;7.93;;;;;;;;;;5051722;28;20232;-45
2022/10/27 00:47:47;;;;;;;7.00;5.87;;;;;;;;;;5051838;28;20195;-45
2022/10/27 00:50:15;;;;;;;9.73;7.17;;;;;;;;;;5050842;28;20200;-45
2022/10/27 00:52:43;;;;;;;8.90;7.03;;;;;;;;;;5051504;28;20736;-45
2022/10/27 00:55:12;;;;;;;8.40;6.70;;;;;;;;;;5051176;28;20617;-45
2022/10/27 00:57:39;;;;;;;9.43;6.80;;;;;;;;;;5051734;28;20200;-45
2022/10/27 01:00:05;;;;;;;9.03;7.00;;;;;;;;;;5051326;28;20195;-45
2022/10/27 01:02:32;;;;;;;9.83;7.03;;;;;;;;;;5051115;28;20196;-45
2022/10/27 01:05:00;;;;;;;8.83;6.47;;;;;;;;;;5047720;28;20188;-44
2022/10/27 01:07:27;;;;;;;7.20;6.20;;;;;;;;;;5051507;28;20196;-44
2022/10/27 01:09:53;;;;;;;6.37;5.67;;;;;;;;;;5051517;28;20200;-45
2022/10/27 01:12:20;;;;;;;7.13;5.40;;;;;;;;;;5050883;28;20224;-45
2022/10/27 01:14:46;;;;;;;6.27;5.67;;;;;;;;;;5050831;28;20287;-45
2022/10/27 01:17:18;;;;;;;5.50;4.80;;;;;;;;;;5050829;28;20188;-45
2022/10/27 01:20:05;;;;;;;8.83;5.33;;;;;;;;;;5051479;28;20196;-45
2022/10/27 01:22:36;;;;;;;12.13;6.07;;;;;;;;;;5050129;28;20531;-45
2022/10/27 01:25:08;;;;;;;11.47;6.37;;;;;;;;;;5050108;28;20188;-45
2022/10/27 01:27:43;;;;;;;8.63;5.63;;;;;;;;;;5051131;28;20196;-45
2022/10/27 01:30:09;;;;;;;9.33;6.10;;;;;;;;;;5050350;28;20200;-45
2022/10/27 01:32:44;;;;;;;9.67;6.53;;;;;;;;;;5051184;28;20228;-45
2022/10/27 01:35:16;;;;;;;6.70;5.30;;;;;;;;;;5051138;28;20223;-45
2022/10/27 01:37:46;;;;;;;6.67;5.67;;;;;;;;;;5051348;28;20201;-45
2022/10/27 01:40:16;;;;;;;6.90;5.47;;;;;;;;;;5051114;28;20277;-45
2022/10/27 01:42:46;;;;;;;6.60;5.50;;;;;;;;;;5050806;28;20195;-45
2022/10/27 01:45:14;;;;;;;7.70;5.67;;;;;;;;;;5050994;28;20242;-45
2022/10/27 01:47:42;;;;;;;6.47;5.60;;;;;;;;;;5050889;28;20490;-45
2022/10/27 01:50:09;;;;;;;8.80;5.47;;;;;;;;;;5051115;28;20225;-46
2022/10/27 01:52:39;;;;;;;7.10;5.57;;;;;;;;;;5050955;28;20763;-45
2022/10/27 01:55:06;;;;;;;8.17;5.70;;;;;;;;;;5050833;28;20220;-45
2022/10/27 01:57:37;;;;;;;8.33;5.00;;;;;;;;;;5050984;28;20192;-45
2022/10/27 02:00:04;;;;;;;8.53;5.10;;;;;;;;;;5050887;28;20204;-45
2022/10/27 02:02:34;;;;;;;6.77;4.93;;;;;;;;;;5050923;28;20196;-45
2022/10/27 02:05:08;;;;;;;5.50;4.80;;;;;;;;;;5050725;28;20290;-45
2022/10/27 02:07:40;;;;;;;5.80;4.90;;;;;;;;;;5052080;28;20244;-45
2022/10/27 02:10:09;;;;;;;10.70;5.83;;;;;;;;;;5054470;28;20200;-45
2022/10/27 02:12:36;;;;;;;6.33;4.53;;;;;;;;;;5054711;28;20646;-45
2022/10/27 02:15:04;;;;;;;6.07;5.10;;;;;;;;;;5053967;28;20242;-45
2022/10/27 02:17:32;;;;;;;11.03;6.00;;;;;;;;;;5053721;28;20207;-45
2022/10/27 02:19:59;;;;;;;9.40;5.93;;;;;;;;;;5054506;28;20211;-45
2022/10/27 02:22:28;;;;;;;6.03;5.30;;;;;;;;;;5054598;28;20188;-45
2022/10/27 02:24:54;;;;;;;8.20;5.50;;;;;;;;;;5054421;28;20686;-45
2022/10/27 02:27:23;;;;;;;7.53;5.50;;;;;;;;;;5053714;28;20201;-45
2022/10/27 02:29:49;;;;;;;6.63;5.80;;;;;;;;;;5054185;28;20204;-45
2022/10/27 02:32:17;;;;;;;8.23;5.83;;;;;;;;;;5054160;28;20543;-45
2022/10/27 02:34:44;;;;;;;6.87;5.70;;;;;;;;;;5054374;28;20580;-45
2022/10/27 02:37:16;;;;;;;8.00;6.30;;;;;;;;;;5054165;28;20200;-45
2022/10/27 02:39:43;;;;;;;9.87;5.83;;;;;;;;;;5053612;28;20200;-45
2022/10/27 02:42:09;;;;;;;5.53;5.03;;;;;;;;;;5053880;28;20298;-45
2022/10/27 02:44:35;;;;;;;7.07;4.50;;;;;;;;;;5054034;28;20279;-45
2022/10/27 02:47:01;;;;;;;5.47;4.97;;;;;;;;;;5053553;28;20627;-45
2022/10/27 02:49:27;;;;;;;6.67;4.90;;;;;;;;;;5053908;28;20608;-45
2022/10/27 02:51:53;;;;;;;5.87;4.60;;;;;;;;;;5053772;28;20235;-45
2022/10/27 02:54:19;;;;;;;6.53;4.93;;;;;;;;;;5053516;28;20589;-45
2022/10/27 02:56:46;;;;;;;6.97;4.83;;;;;;;;;;5053778;28;20636;-45
2022/10/27 02:59:12;;;;;;;5.17;4.47;;;;;;;;;;5053548;28;20225;-45
2022/10/27 03:01:38;;;;;;;7.30;4.90;;;;;;;;;;5053867;28;20740;-45
2022/10/27 03:04:05;;;;;;;6.57;4.57;;;;;;;;;;5053742;28;20239;-45
2022/10/27 03:06:31;;;;;;;7.17;5.00;;;;;;;;;;5052780;28;20666;-45
2022/10/27 03:08:57;;;;;;;5.33;4.50;;;;;;;;;;5053417;28;20694;-45
2022/10/27 03:11:23;;;;;;;4.80;4.30;;;;;;;;;;5052890;28;20299;-45
2022/10/27 03:13:50;;;;;;;6.30;4.47;;;;;;;;;;5052761;28;20232;-43
2022/10/27 03:16:16;;;;;;;5.80;5.20;;;;;;;;;;5052867;28;20286;-44
2022/10/27 03:18:42;;;;;;;6.47;4.30;;;;;;;;;;5052430;28;20203;-44
2022/10/27 03:21:08;;;;;;;5.53;4.13;;;;;;;;;;5053170;28;20192;-44
2022/10/27 03:23:34;;;;;;;5.03;4.53;;;;;;;;;;5053435;28;20244;-44
2022/10/27 03:26:00;;;;;;;5.43;4.30;;;;;;;;;;5053264;28;20204;-43
2022/10/27 03:28:29;;;;;;;6.50;4.33;;;;;;;;;;5052712;28;20204;-44
2022/10/27 03:30:56;;;;;;;4.13;3.73;;;;;;;;;;5052284;28;20206;-44
2022/10/27 03:33:22;;;;;;;4.83;3.90;;;;;;;;;;5053208;28;20248;-44
2022/10/27 03:35:48;;;;;;;5.90;4.10;;;;;;;;;;5053237;28;20666;-44
2022/10/27 03:38:14;;;;;;;5.40;4.43;;;;;;;;;;5052775;28;20223;-43
2022/10/27 03:40:40;;;;;;;4.50;3.77;;;;;;;;;;5052937;28;20666;-48
2022/10/27 03:43:06;;;;;;;6.60;4.30;;;;;;;;;;5053003;28;20200;-44
2022/10/27 03:45:33;;;;;;;6.03;4.73;;;;;;;;;;5053037;28;20200;-44
2022/10/27 03:48:02;;;;;;;5.83;4.67;;;;;;;;;;5052976;28;20200;-44
2022/10/27 03:50:28;;;;;;;5.63;4.57;;;;;;;;;;5052599;28;20243;-44
2022/10/27 03:52:54;;;;;;;6.73;5.23;;;;;;;;;;5052815;28;20224;-44
2022/10/27 03:55:20;;;;;;;6.73;4.73;;;;;;;;;;5052651;28;20200;-46
2022/10/27 03:57:46;;;;;;;5.90;4.67;;;;;;;;;;5052865;28;20203;-45
2022/10/27 04:00:13;;;;;;;7.50;5.20;;;;;;;;;;5052298;28;20561;-45
2022/10/27 04:02:39;;;;;;;6.13;5.07;;;;;;;;;;5052475;28;20707;-44
2022/10/27 04:05:07;;;;;;;7.07;5.53;;;;;;;;;;5052878;28;20200;-44
2022/10/27 04:07:33;;;;;;;7.40;5.07;;;;;;;;;;5052525;28;20263;-44
2022/10/27 04:09:59;;;;;;;8.83;5.53;;;;;;;;;;5052506;28;20204;-44
2022/10/27 04:12:25;;;;;;;7.73;5.80;;;;;;;;;;5052215;28;20250;-44
2022/10/27 04:14:52;;;;;;;6.87;6.17;;;;;;;;;;5052452;28;20541;-44
2022/10/27 04:17:18;;;;;;;10.70;6.07;;;;;;;;;;5052180;28;20192;-44
2022/10/27 04:19:44;;;;;;;7.93;6.60;;;;;;;;;;5052548;28;20200;-44
2022/10/27 04:22:11;;;;;;;10.50;6.50;;;;;;;;;;5051956;28;20663;-44
2022/10/27 04:24:39;;;;;;;9.23;7.03;;;;;;;;;;5052091;28;20211;-44
2022/10/27 04:27:05;;;;;;;9.90;6.20;;;;;;;;;;5052149;28;20693;-44
2022/10/27 04:29:31;;;;;;;8.60;6.77;;;;;;;;;;5051979;28;20199;-44
2022/10/27 04:31:57;;;;;;;8.80;7.03;;;;;;;;;;5051651;28;20449;-45
2022/10/27 04:34:23;;;;;;;9.40;7.40;;;;;;;;;;5051967;28;20236;-45
2022/10/27 04:36:49;;;;;;;10.37;8.17;;;;;;;;;;5052087;28;20685;-44
2022/10/27 04:39:16;;;;;;;9.13;6.97;;;;;;;;;;5051601;28;20267;-44
2022/10/27 04:41:42;;;;;;;8.33;6.60;;;;;;;;;;5051249;28;20223;-44
2022/10/27 04:44:08;;;;;;;7.93;5.93;;;;;;;;;;5050719;28;20203;-45
2022/10/27 04:46:34;;;;;;;8.33;5.73;;;;;;;;;;5050972;28;20257;-44
2022/10/27 04:49:01;;;;;;;11.60;6.27;;;;;;;;;;5050977;28;20667;-44
2022/10/27 04:51:27;;;;;;;10.10;7.33;;;;;;;;;;5050673;28;20236;-45
2022/10/27 04:53:53;;;;;;;8.60;6.90;;;;;;;;;;5051657;28;20259;-44
2022/10/27 04:56:20;;;;;;;6.27;5.30;;;;;;;;;;5051618;28;20298;-44
2022/10/27 04:58:46;;;;;;;6.70;5.50;;;;;;;;;;5051593;28;20246;-45
2022/10/27 05:01:13;;;;;;;7.77;4.87;;;;;;;;;;5061429;28;20222;-44
2022/10/27 05:03:39;;;;;;;6.03;5.43;;;;;;;;;;5068541;28;20203;-44
2022/10/27 05:06:05;;;;;;;10.07;5.93;;;;;;;;;;5070897;28;20203;-44
2022/10/27 05:08:32;;;;;;;6.77;5.17;;;;;;;;;;5071019;28;20692;-44
2022/10/27 05:10:58;;;;;;;7.87;5.00;;;;;;;;;;5071427;28;20206;-44
2022/10/27 05:13:25;;;;;;;6.67;5.30;;;;;;;;;;5071362;28;20223;-44
2022/10/27 05:15:51;;;;;;;7.73;5.60;;;;;;;;;;5071333;28;20286;-44
2022/10/27 05:18:17;;;;;;;10.63;5.50;;;;;;;;;;5071412;28;20219;-44
2022/10/27 05:20:43;;;;;;;14.87;9.07;;;;;;;;;;5071586;28;20191;-44
2022/10/27 05:23:10;;;;;;;9.67;6.17;;;;;;;;;;5071275;28;20195;-44
2022/10/27 05:25:36;;;;;;;7.47;5.80;;;;;;;;;;5071251;28;20687;-44
2022/10/27 05:28:03;;;;;;;9.57;7.40;;;;;;;;;;5071200;28;20195;-44
2022/10/27 05:30:30;;;;;;;10.10;6.80;;;;;;;;;;5071309;28;20218;-44
2022/10/27 05:32:56;;;;;;;9.23;6.73;;;;;;;;;;5070800;28;20223;-44
2022/10/27 05:35:22;;;;;;;9.93;6.80;;;;;;;;;;5070870;28;20207;-44
2022/10/27 05:37:48;;;;;;;6.00;5.47;;;;;;;;;;5071066;28;20195;-44
2022/10/27 05:40:15;;;;;;;6.13;5.53;;;;;;;;;;5071217;28;20572;-44
2022/10/27 05:42:48;;;;;;;5.67;5.07;;;;;;;;;;5072232;28;20650;-44
2022/10/27 05:45:14;;;;;;;7.17;5.23;;;;;;;;;;5075569;28;20202;-44
2022/10/27 05:47:42;;;;;;;5.50;5.00;;;;;;;;;;5075240;28;20190;-44
2022/10/27 05:50:08;;;;;;;6.80;4.80;;;;;;;;;;5075138;28;20199;-45
2022/10/27 05:52:34;;;;;;;6.00;4.87;;;;;;;;;;5075263;28;20209;-44
2022/10/27 05:55:00;;;;;;;5.13;4.73;;;;;;;;;;5075225;28;20242;-44
2022/10/27 05:57:26;;;;;;;7.90;5.33;;;;;;;;;;5074842;28;20223;-44
2022/10/27 05:59:52;;;;;;;6.93;4.80;;;;;;;;;;5074874;28;20290;-45
2022/10/27 06:02:18;;;;;;;5.53;4.70;;;;;;;;;;5074913;28;20543;-45
2022/10/27 06:04:46;;;;;;;5.30;4.80;;;;;;;;;;5074545;28;20697;-45
2022/10/27 06:07:12;;;;;;;6.50;4.57;;;;;;;;;;5074648;28;20579;-45
2022/10/27 06:09:38;;;;;;;5.07;4.57;;;;;;;;;;5074732;28;20238;-45
2022/10/27 06:12:04;;;;;;;7.27;5.20;;;;;;;;;;5074849;28;20669;-45
2022/10/27 06:14:30;;;;;;;8.27;4.67;;;;;;;;;;5074578;28;20322;-45
2022/10/27 06:16:56;;;;;;;8.93;6.23;;;;;;;;;;5074499;28;20791;-45
2022/10/27 06:19:22;;;;;;;6.60;5.30;;;;;;;;;;5074477;28;20203;-45
2022/10/27 06:21:49;;;;;;;5.40;4.90;;;;;;;;;;5074582;28;20294;-45
2022/10/27 06:24:15;;;;;;;8.20;4.80;;;;;;;;;;5074459;28;20282;-45
2022/10/27 06:26:41;;;;;;;6.77;4.90;;;;;;;;;;5074277;28;20199;-45
2022/10/27 06:29:07;;;;;;;5.20;4.70;;;;;;;;;;5074407;28;20195;-45
2022/10/27 06:31:33;;;;;;;5.17;4.50;;;;;;;;;;5074664;28;20202;-45
2022/10/27 06:33:59;;;;;;;5.70;4.50;;;;;;;;;;5074204;28;20695;-45
2022/10/27 06:36:25;;;;;;;5.43;4.37;;;;;;;;;;5074339;28;20188;-45
2022/10/27 06:38:53;;;;;;;7.70;4.60;;;;;;;;;;5074812;28;20191;-45
2022/10/27 06:41:19;;;;;;;5.10;4.60;;;;;;;;;;5074270;28;20203;-45
2022/10/27 06:43:45;;;;;;;5.07;4.57;;;;;;;;;;5074137;28;20200;-45
2022/10/27 06:46:11;;;;;;;5.90;5.17;;;;;;;;;;5073937;28;20206;-45
2022/10/27 06:48:37;;;;;;;6.37;5.77;;;;;;;;;;5073998;28;20195;-45
2022/10/27 06:51:03;;;;;;;6.93;6.17;;;;;;;;;;5073618;28;20257;-45
2022/10/27 06:53:29;;;;;;;8.83;6.60;;;;;;;;;;5073535;28;20224;-45
2022/10/27 06:55:57;;;;;;;10.67;7.93;;;;;;;;;;5073001;28;20192;-45
2022/10/27 06:58:23;;;;;;;9.97;8.23;;;;;;;;;;5074174;28;20208;-45
2022/10/27 07:00:49;;;;;;;10.03;8.50;;;;;;;;;;5074202;28;20211;-45
2022/10/27 07:03:15;;;;;;;9.57;7.33;;;;;;;;;;5073495;28;20196;-49
2022/10/27 07:05:41;;;;;;;9.03;7.00;;;;;;;;;;5073678;28;20666;-45
2022/10/27 07:08:08;;;;;;;9.40;7.13;;;;;;;;;;5073479;28;20223;-45
2022/10/27 07:10:34;;;;;;;8.27;6.70;;;;;;;;;;5072737;28;20274;-44
2022/10/27 07:13:01;;;;;;;6.20;5.70;;;;;;;;;;5073198;28;20231;-44
2022/10/27 07:15:30;;;;;;;7.03;6.40;;;;;;;;;;5073350;28;20286;-44
2022/10/27 07:17:56;;;;;;;7.73;6.93;;;;;;;;;;5073333;28;20211;-44
2022/10/27 07:20:23;;;;;;;7.00;6.27;;;;;;;;;;5073592;28;20211;-45
2022/10/27 07:22:49;;;;;;;7.83;7.03;;;;;;;;;;5073303;28;20195;-45
2022/10/27 07:25:15;;;;;;;7.90;7.10;;;;;;;;;;5073093;28;20200;-44
2022/10/27 07:27:41;;;;;;;8.33;6.80;;;;;;;;;;5073475;28;20386;-44
2022/10/27 07:30:09;;;;;;;9.10;6.63;;;;;;;;;;5073355;28;20282;-44
2022/10/27 07:32:35;;;;;;;9.67;6.87;;;;;;;;;;5072637;28;20575;-45
2022/10/27 07:35:02;;;;;;;8.07;6.63;;;;;;;;;;5073143;28;20235;-44
2022/10/27 07:37:28;;;;;;;7.87;6.53;;;;;;;;;;5072187;28;20290;-44
2022/10/27 07:39:54;;;;;;;7.63;6.73;;;;;;;;;;5072134;28;20278;-44
2022/10/27 07:42:20;;;;;;;7.80;7.00;;;;;;;;;;5072281;28;20465;-45
2022/10/27 07:44:46;;;;;;;9.03;7.20;;;;;;;;;;5072965;28;20201;-44
2022/10/27 07:47:13;;;;;;;9.63;6.77;;;;;;;;;;5072805;28;20195;-44
2022/10/27 07:49:39;;;;;;;7.77;6.90;;;;;;;;;;5073044;28;20204;-45
2022/10/27 07:52:05;;;;;;;8.40;7.50;;;;;;;;;;5069768;28;20231;-44
2022/10/27 07:54:33;;;;;;;7.43;6.80;;;;;;;;;;5072179;28;20644;-45
2022/10/27 07:56:59;;;;;;;7.83;7.03;;;;;;;;;;5072645;28;20206;-44
2022/10/27 07:59:25;;;;;;;8.03;6.80;;;;;;;;;;5072617;28;20219;-44
2022/10/27 08:01:51;;;;;;;7.37;5.77;;;;;;;;;;5072435;28;20226;-45
2022/10/27 08:04:18;;;;;;;5.90;5.30;;;;;;;;;;5072520;28;20188;-45
2022/10/27 08:06:44;;;;;;;7.23;5.93;;;;;;;;;;5072117;28;20615;-45
2022/10/27 08:09:11;;;;;;;7.17;4.87;;;;;;;;;;5072229;28;20219;-44
2022/10/27 08:11:37;;;;;;;6.43;4.70;;;;;;;;;;5072476;28;20561;-44
2022/10/27 08:14:03;;;;;;;7.17;4.33;;;;;;;;;;5072203;28;20233;-44
2022/10/27 08:16:29;;;;;;;7.90;4.00;;;;;;;;;;5072044;28;20283;-45
2022/10/27 08:18:55;;;;;;;6.70;4.13;;;;;;;;;;5072185;28;20206;-44
2022/10/27 08:21:22;;;;;;;6.97;3.93;;;;;;;;;;5071880;28;20666;-45
2022/10/27 08:23:48;;;;;;;4.20;3.50;;;;;;;;;;5071997;28;20195;-44
2022/10/27 08:26:14;;;;;;;8.37;3.73;;;;;;;;;;5071996;28;20202;-45
2022/10/27 08:28:40;;;;;;;6.97;3.70;;;;;;;;;;5071870;28;20222;-44
2022/10/27 08:31:06;;;;;;;5.03;3.30;;;;;;;;;;5071758;28;20218;-45
2022/10/27 08:33:32;;;;;;;6.90;3.63;;;;;;;;;;5071710;28;20219;-45
2022/10/27 08:36:01;;;;;;;5.10;3.80;;;;;;;;;;5071892;28;20199;-45
2022/10/27 08:38:31;;;;;;;5.63;3.73;;;;;;;;;;5071815;28;20658;-45
2022/10/27 08:41:12;;;;;;;4.33;3.10;;;;;;;;;;5071765;28;20193;-46
2022/10/27 08:43:46;;;;;;;4.70;3.73;;;;;;;;;;5068971;28;20294;-45
2022/10/27 08:46:14;;;;;;;4.33;3.20;;;;;;;;;;5071707;28;20653;-45
2022/10/27 08:48:42;;;;;;;4.33;3.20;;;;;;;;;;5071744;28;20207;-45
2022/10/27 08:51:10;;;;;;;4.07;3.60;;;;;;;;;;5071081;28;20245;-45
2022/10/27 08:53:38;;;;;;;5.57;3.00;;;;;;;;;;5071242;28;20249;-46
2022/10/27 08:56:06;;;;;;;4.77;3.20;;;;;;;;;;5071045;28;20257;-45
2022/10/27 08:58:36;;;;;;;6.43;3.80;;;;;;;;;;5070444;28;20199;-44
2022/10/27 09:01:05;;;;;;;5.93;3.33;;;;;;;;;;5071396;28;20206;-45
2022/10/27 09:03:38;;;;;;;5.30;3.40;;;;;;;;;;5071845;28;20850;-45
2022/10/27 09:06:07;;;;;;;4.40;3.30;;;;;;;;;;5071338;28;20210;-44
2022/10/27 09:08:37;;;;;;;6.83;3.13;;;;;;;;;;5071259;28;20302;-45
2022/10/27 09:11:08;;;;;;;6.37;3.27;;;;;;;;;;5071318;28;20203;-45
2022/10/27 09:13:40;;;;;;;5.53;3.37;;;;;;;;;;5071077;28;20242;-45
2022/10/27 09:16:08;;;;;;;5.33;3.03;;;;;;;;;;5071100;28;20199;-45
2022/10/27 09:18:37;;;;;;;5.63;3.20;;;;;;;;;;5071362;28;20199;-45
2022/10/27 09:21:04;;;;;;;7.07;3.20;;;;;;;;;;5070999;28;20611;-45
2022/10/27 09:23:34;;;;;;;5.23;3.20;;;;;;;;;;5071146;28;20200;-45
2022/10/27 09:26:00;;;;;;;6.37;2.80;;;;;;;;;;5070859;28;20776;-44
2022/10/27 09:28:30;;;;;;;6.17;3.07;;;;;;;;;;5070292;28;20673;-45
2022/10/27 09:30:57;;;;;;;7.60;3.53;;;;;;;;;;5070445;28;20206;-44
2022/10/27 09:33:27;;;;;;;4.77;2.80;;;;;;;;;;5071352;28;20228;-44
2022/10/27 09:35:53;;;;;;;6.27;3.00;;;;;;;;;;5071328;28;20280;-44
2022/10/27 09:38:21;;;;;;;3.60;2.60;;;;;;;;;;5070754;28;20214;-44
2022/10/27 09:40:47;;;;;;;4.73;2.93;;;;;;;;;;5071354;28;20195;-45
2022/10/27 09:43:13;;;;;;;4.20;2.73;;;;;;;;;;5070387;28;20234;-45
2022/10/27 09:45:42;;;;;;;4.53;2.70;;;;;;;;;;5071047;28;20199;-45
2022/10/27 09:48:12;;;;;;;3.97;2.80;;;;;;;;;;5070208;28;20208;-45
2022/10/27 09:50:40;;;;;;;4.37;2.63;;;;;;;;;;5070704;28;20277;-45
2022/10/27 09:53:26;;;;;;;6.10;3.50;;;;;;;;;;5071087;28;20769;-44
2022/10/27 09:55:53;;;;;;;5.30;3.00;;;;;;;;;;5071154;28;20278;-44
2022/10/27 09:58:19;;;;;;;5.07;3.10;;;;;;;;;;5071136;28;20294;-44
2022/10/27 10:00:55;;;;;;;6.20;2.87;;;;;;;;;;5071393;28;20238;-45
2022/10/27 10:03:21;;;;;;;5.40;3.37;;;;;;;;;;5071077;28;20191;-45
2022/10/27 10:05:59;;;;;;;7.10;3.63;;;;;;;;;;5070961;28;20535;-45
2022/10/27 10:08:26;;;;;;;8.20;3.50;;;;;;;;;;5070758;28;20221;-45
2022/10/27 10:10:53;;;;;;;6.50;3.20;;;;;;;;;;5070975;28;20577;-45
2022/10/27 10:13:20;;;;;;;6.83;3.43;;;;;;;;;;5070649;28;20255;-44
2022/10/27 10:15:47;;;;;;;5.17;2.97;;;;;;;;;;5071025;28;20201;-45
2022/10/27 10:18:22;;;;;;;6.37;2.87;;;;;;;;;;5070755;28;20207;-45
2022/10/27 10:20:55;;;;;;;4.83;3.00;;;;;;;;;;5070886;28;20199;-45
2022/10/27 10:23:22;;;;;;;6.67;3.30;;;;;;;;;;5069929;28;20292;-45
2022/10/27 10:25:49;;;;;;;6.10;3.17;;;;;;;;;;5070966;28;20200;-45
2022/10/27 10:28:18;;;;;;;5.97;3.03;;;;;;;;;;5071242;28;20206;-44
2022/10/27 10:30:48;;;;;;;6.53;3.17;;;;;;;;;;5073202;28;20284;-45
2022/10/27 10:33:16;;;;;;;10.67;3.10;;;;;;;;;;5074626;28;20212;-45
2022/10/27 10:35:44;;;;;;;5.13;3.20;;;;;;;;;;5074983;28;20205;-45
2022/10/27 10:38:25;;;;;;;6.20;3.20;;;;;;;;;;5074710;28;20195;-46
2022/10/27 10:40:56;;;;;;;4.33;3.03;;;;;;;;;;5074606;28;20664;-45
2022/10/27 10:43:22;;;;;;;5.10;2.53;;;;;;;;;;5074590;28;20189;-46
2022/10/27 10:45:51;;;;;;;4.40;2.73;;;;;;;;;;5074682;28;20195;-46
2022/10/27 10:48:26;;;;;;;5.00;2.60;;;;;;;;;;5074376;28;20686;-45
2022/10/27 10:50:52;;;;;;;7.67;2.83;;;;;;;;;;5074344;28;20253;-45
2022/10/27 10:53:27;;;;;;;3.97;2.57;;;;;;;;;;5074350;28;20223;-46
2022/10/27 10:55:54;;;;;;;6.17;3.30;;;;;;;;;;5074494;28;20201;-45
2022/10/27 10:58:21;;;;;;;5.57;3.10;;;;;;;;;;5074225;28;20748;-46
2022/10/27 11:00:52;;;;;;;4.77;2.90;;;;;;;;;;5074264;28;20561;-46
2022/10/27 11:03:19;;;;;;;6.70;3.00;;;;;;;;;;5074445;28;20195;-45
2022/10/27 11:05:52;;;;;;;7.27;3.17;;;;;;;;;;5074344;28;20238;-45
2022/10/27 11:08:20;;;;;;;6.77;2.87;;;;;;;;;;5074130;28;20277;-45
2022/10/27 11:10:47;;;;;;;6.27;2.97;;;;;;;;;;5074282;28;20277;-45
2022/10/27 11:13:16;;;;;;;6.13;3.13;;;;;;;;;;5073873;28;20213;-45
2022/10/27 11:15:44;;;;;;;5.93;3.37;;;;;;;;;;5074060;28;20198;-45
2022/10/27 11:18:14;;;;;;;4.80;3.00;;;;;;;;;;5073528;28;20393;-45
2022/10/27 11:20:41;;;;;;;4.30;3.40;;;;;;;;;;5071680;28;20204;-46
2022/10/27 11:23:14;;;;;;;5.80;3.17;;;;;;;;;;5072778;28;20632;-45
2022/10/27 11:25:40;;;;;;;4.93;3.27;;;;;;;;;;5074112;28;20237;-45
2022/10/27 11:28:14;;;;;;;7.30;3.20;;;;;;;;;;5072348;28;20668;-46
2022/10/27 11:30:42;;;;;;;4.87;3.10;;;;;;;;;;5073386;28;20552;-45
2022/10/27 11:33:14;;;;;;;8.17;3.57;;;;;;;;;;5072770;28;20690;-45
2022/10/27 11:35:43;;;;;;;5.23;3.00;;;;;;;;;;5073010;28;20230;-47
2022/10/27 11:38:15;;;;;;;6.63;3.40;;;;;;;;;;5073472;28;20199;-45
2022/10/27 11:40:43;;;;;;;4.87;3.10;;;;;;;;;;5072524;28;20257;-45
2022/10/27 11:43:11;;;;;;;7.40;3.10;;;;;;;;;;5073025;28;20192;-46
2022/10/27 11:45:40;;;;;;;5.17;3.00;;;;;;;;;;5070724;28;20249;-46
2022/10/27 11:48:09;;;;;;;4.17;3.10;;;;;;;;;;5073207;28;20202;-45
2022/10/27 11:50:37;;;;;;;5.40;3.10;;;;;;;;;;5072891;28;20257;-45
2022/10/27 11:53:03;;;;;;;5.43;2.83;;;;;;;;;;5073328;28;20665;-45
2022/10/27 11:55:36;;;;;;;4.80;2.90;;;;;;;;;;5073067;28;20201;-46
2022/10/27 11:58:06;;;;;;;4.73;2.97;;;;;;;;;;5072699;28;20224;-46
2022/10/27 12:00:36;;;;;;;5.73;2.53;;;;;;;;;;5071144;28;20250;-46
2022/10/27 12:03:16;;;;;;;4.70;2.50;;;;;;;;;;5072632;28;20676;-46
2022/10/27 12:05:46;;;;;;;7.00;3.17;;;;;;;;;;5072292;28;20199;-46
2022/10/27 12:08:16;;;;;;;4.87;2.97;;;;;;;;;;5072497;28;20298;-47
2022/10/27 12:10:49;;;;;;;6.90;3.13;;;;;;;;;;5072732;28;20233;-46
2022/10/27 12:13:19;;;;;;;5.17;2.97;;;;;;;;;;5072567;28;20215;-46
2022/10/27 12:15:48;;;;;;;5.03;3.13;;;;;;;;;;5072560;28;20204;-47
2022/10/27 12:18:21;;;;;;;7.73;2.93;;;;;;;;;;5072618;28;20196;-46
2022/10/27 12:20:50;;;;;;;4.07;2.70;;;;;;;;;;5071849;28;20267;-46
2022/10/27 12:23:19;;;;;;;5.40;2.60;;;;;;;;;;5072480;28;20218;-46
2022/10/27 12:25:51;;;;;;;4.10;2.70;;;;;;;;;;5072559;28;20268;-45
2022/10/27 12:28:18;;;;;;;4.77;2.73;;;;;;;;;;5072465;28;20204;-45
2022/10/27 12:30:46;;;;;;;4.17;2.53;;;;;;;;;;5072693;28;20199;-45
2022/10/27 12:33:16;;;;;;;5.57;2.33;;;;;;;;;;5072100;28;22187;-52
2022/10/27 12:35:45;;;;;;;3.70;2.30;;;;;;;;;;5069714;28;20278;-45
2022/10/27 12:38:13;;;;;;;2.47;2.10;;;;;;;;;;5072063;28;20199;-45
2022/10/27 12:40:41;;;;;;;4.70;2.10;;;;;;;;;;5070693;28;20193;-46
2022/10/27 12:43:14;;;;;;;4.70;2.40;;;;;;;;;;5072279;28;20207;-45
2022/10/27 12:45:56;;;;;;;4.00;2.43;;;;;;;;;;5072122;28;20204;-45
2022/10/27 12:48:28;;;;;;;3.40;2.03;;;;;;;;;;5072148;28;20227;-46
2022/10/27 12:50:59;;;;;;;3.87;2.30;;;;;;;;;;5070450;28;20293;-46
2022/10/27 12:53:31;;;;;;;8.07;2.47;;;;;;;;;;5071835;28;20229;-46
2022/10/27 12:56:00;;;;;;;4.67;2.10;;;;;;;;;;5072249;28;20202;-45
2022/10/27 12:58:32;;;;;;;4.80;2.00;;;;;;;;;;5071998;28;20202;-46
2022/10/27 13:01:01;;;;;;;5.93;2.20;;;;;;;;;;5070628;28;20249;-46
2022/10/27 13:03:42;;;;;;;4.13;2.17;;;;;;;;;;5072135;28;20215;-46
2022/10/27 13:06:11;;;;;;;3.20;2.10;;;;;;;;;;5059376;28;20197;-46
2022/10/27 13:08:44;;;;;;;5.93;2.13;;;;;;;;;;5070186;28;20687;-45
2022/10/27 13:11:18;;;;;;;4.10;2.00;;;;;;;;;;5071985;28;20290;-46
2022/10/27 13:13:59;;;;;;;3.40;1.80;;;;;;;;;;5071988;28;20223;-45
2022/10/27 13:16:30;;;;;;;4.80;1.87;;;;;;;;;;5071783;28;20215;-45
2022/10/27 13:19:02;;;;;;;5.17;2.50;;;;;;;;;;5072087;28;20282;-45
2022/10/27 13:21:31;;;;;;;3.03;2.00;;;;;;;;;;5071971;28;20253;-45
2022/10/27 13:24:00;;;;;;;7.20;2.17;;;;;;;;;;5069985;28;20196;-46
2022/10/27 13:26:31;;;;;;;3.00;1.90;;;;;;;;;;5071734;28;20242;-45
2022/10/27 13:29:00;;;;;;;4.73;1.93;;;;;;;;;;5069934;28;20717;-46
2022/10/27 13:31:26;;;;;;;2.23;1.80;;;;;;;;;;5071520;28;20261;-46
2022/10/27 13:34:00;;;;;;;5.23;2.10;;;;;;;;;;5071571;28;20219;-46
2022/10/27 13:36:26;;;;;;;3.47;1.97;;;;;;;;;;5071470;28;20199;-46
2022/10/27 13:39:21;;;;;;;3.70;2.00;;;;;;;;;;5071686;28;20196;-46
2022/10/27 13:41:48;;;;;;;2.73;2.10;;;;;;;;;;5070936;28;20603;-46
2022/10/27 13:44:26;;;;;;;3.90;1.77;;;;;;;;;;5071143;28;20232;-46
2022/10/27 13:47:07;;;;;;;2.70;1.80;;;;;;;;;;5071571;28;20669;-46
2022/10/27 13:49:49;;;;;;;4.17;1.80;;;;;;;;;;5071931;28;20211;-46
2022/10/27 13:52:19;;;;;;;4.23;2.10;;;;;;;;;;5071478;28;20361;-46
2022/10/27 13:54:49;;;;;;;4.03;2.20;;;;;;;;;;5071280;28;20247;-46
2022/10/27 13:57:33;;;;;;;4.50;2.37;;;;;;;;;;5071512;28;20238;-46
2022/10/27 14:00:03;;;;;;;3.60;1.97;;;;;;;;;;5071538;28;20198;-46
2022/10/27 14:02:33;;;;;;;1.87;1.63;;;;;;;;;;5071230;28;20211;-46
2022/10/27 14:05:00;;;;;;;3.13;1.80;;;;;;;;;;5074827;28;20562;-46
2022/10/27 14:07:26;;;;;;;4.33;2.20;;;;;;;;;;5075257;28;20206;-46
2022/10/27 14:09:52;;;;;;;3.87;2.10;;;;;;;;;;5072760;28;20203;-46
2022/10/27 14:12:23;;;;;;;3.40;1.70;;;;;;;;;;5074787;28;20198;-46
2022/10/27 14:14:51;;;;;;;4.70;1.83;;;;;;;;;;5074731;28;20250;-46
2022/10/27 14:17:21;;;;;;;6.47;1.90;;;;;;;;;;5075124;28;20274;-46
2022/10/27 14:19:51;;;;;;;3.53;1.87;;;;;;;;;;5075389;28;20599;-46
2022/10/27 14:22:24;;;;;;;6.37;2.00;;;;;;;;;;5075157;28;20294;-46
2022/10/27 14:24:51;;;;;;;6.10;2.00;;;;;;;;;;5075185;28;20196;-46
2022/10/27 14:27:19;;;;;;;6.40;2.33;;;;;;;;;;5074994;28;20190;-46
2022/10/27 14:29:45;;;;;;;4.97;1.73;;;;;;;;;;5075254;28;20196;-46
2022/10/27 14:32:12;;;;;;;6.17;1.87;;;;;;;;;;5074878;28;20204;-46
2022/10/27 14:34:39;;;;;;;3.67;1.60;;;;;;;;;;5074538;28;20588;-46
2022/10/27 14:37:12;;;;;;;4.33;1.80;;;;;;;;;;5074656;28;20206;-46
2022/10/27 14:39:39;;;;;;;3.17;2.10;;;;;;;;;;5074610;28;20244;-46
2022/10/27 14:42:13;;;;;;;2.13;1.60;;;;;;;;;;5074821;28;20195;-46
2022/10/27 14:44:43;;;;;;;4.37;1.80;;;;;;;;;;5074746;28;20604;-46
2022/10/27 14:47:11;;;;;;;2.67;1.87;;;;;;;;;;5074816;28;20199;-46
2022/10/27 14:49:39;;;;;;;4.63;2.20;;;;;;;;;;5074483;28;20195;-46